Time;durP1;ratioP1;P1;durP2;ratioP2;P2;SDS_P1;SDS_P2;PMS_P1;PMS_P2;Temp;Humidity;BMP_temperature;BMP_pressure;BME280_temperature;BME280_humidity;BME280_pressure;Samples;Min_cycle;Max_cycle;Signal;HPM_P1;HPM_P2
2023/05/05 00:00:59;;;;;;;0.00;0.00;;;15.90;89.50;;;;;;5085165;28;20184;-62
2023/05/05 00:03:25;;;;;;;0.00;0.00;;;15.80;90.10;;;;;;5091784;28;20297;-62
2023/05/05 00:05:56;;;;;;;0.00;0.00;;;15.70;90.40;;;;;;5091666;28;20275;-62
2023/05/05 00:08:22;;;;;;;0.00;0.00;;;15.70;90.90;;;;;;5091464;28;20212;-62
2023/05/05 00:10:49;;;;;;;0.25;0.22;;;15.70;91.60;;;;;;5091657;28;20594;-62
2023/05/05 00:13:15;;;;;;;0.00;0.00;;;15.60;91.90;;;;;;5091267;28;20294;-62
2023/05/05 00:15:42;;;;;;;0.00;0.00;;;15.60;92.60;;;;;;5091278;28;20188;-62
2023/05/05 00:18:08;;;;;;;0.10;0.10;;;15.50;93.10;;;;;;5091231;28;20190;-62
2023/05/05 00:20:33;;;;;;;0.00;0.00;;;15.50;93.70;;;;;;5091329;28;20168;-62
2023/05/05 00:22:59;;;;;;;0.05;0.00;;;15.40;94.20;;;;;;5091129;28;20203;-62
2023/05/05 00:25:25;;;;;;;0.00;0.00;;;15.40;94.60;;;;;;5091509;28;20623;-62
2023/05/05 00:27:51;;;;;;;0.00;0.00;;;15.40;95.00;;;;;;5090765;28;20271;-62
2023/05/05 00:30:17;;;;;;;0.08;0.08;;;15.30;95.40;;;;;;5091183;28;20184;-62
2023/05/05 00:32:42;;;;;;;0.00;0.00;;;15.30;96.10;;;;;;5091240;28;20230;-62
2023/05/05 00:35:08;;;;;;;0.00;0.00;;;15.20;96.60;;;;;;5090758;28;20184;-62
2023/05/05 00:37:34;;;;;;;0.17;0.13;;;15.20;97.30;;;;;;5091446;28;20172;-62
2023/05/05 00:39:59;;;;;;;0.00;0.00;;;15.20;97.60;;;;;;5090925;28;20183;-62
2023/05/05 00:42:25;;;;;;;0.10;0.10;;;15.10;97.90;;;;;;5093656;28;20183;-62
2023/05/05 00:44:51;;;;;;;0.00;0.00;;;15.10;98.20;;;;;;5090947;28;20275;-62
2023/05/05 00:47:18;;;;;;;0.00;0.00;;;15.10;98.60;;;;;;5091096;28;20326;-62
2023/05/05 00:49:44;;;;;;;0.00;0.00;;;15.00;98.90;;;;;;5090993;28;20176;-62
2023/05/05 00:52:10;;;;;;;0.00;0.00;;;15.00;99.10;;;;;;5090206;28;20256;-62
2023/05/05 00:54:37;;;;;;;0.20;0.20;;;14.90;99.40;;;;;;5090776;28;20240;-62
2023/05/05 00:57:02;;;;;;;0.00;0.00;;;14.90;99.80;;;;;;5090605;28;20176;-62
2023/05/05 00:59:30;;;;;;;0.10;0.10;;;14.80;99.90;;;;;;5090569;28;20653;-62
2023/05/05 01:01:55;;;;;;;0.00;0.00;;;14.80;99.90;;;;;;5075202;28;20234;-62
2023/05/05 01:04:21;;;;;;;0.00;0.00;;;14.70;99.90;;;;;;5087691;28;20179;-62
2023/05/05 01:07:17;;;;;;;0.00;0.00;;;14.70;99.90;;;;;;5090524;28;20263;-62
2023/05/05 01:09:56;;;;;;;0.00;0.00;;;14.70;99.90;;;;;;5090928;28;20184;-62
2023/05/05 01:13:00;;;;;;;0.00;0.00;;;14.60;99.90;;;;;;5089875;28;20211;-62
2023/05/05 01:15:36;;;;;;;0.00;0.00;;;14.50;99.90;;;;;;5090290;28;20642;-62
2023/05/05 01:18:20;;;;;;;0.00;0.00;;;14.50;99.90;;;;;;5089871;28;20184;-62
2023/05/05 01:20:52;;;;;;;0.00;0.00;;;14.40;99.90;;;;;;5091008;28;20168;-62
2023/05/05 01:23:36;;;;;;;0.00;0.00;;;14.40;99.90;;;;;;5090335;28;20230;-62
2023/05/05 01:26:18;;;;;;;0.00;0.00;;;14.40;99.90;;;;;;5090558;28;20176;-62
2023/05/05 01:29:13;;;;;;;0.08;0.08;;;14.30;99.90;;;;;;5090757;28;20663;-62
2023/05/05 01:31:52;;;;;;;0.00;0.00;;;14.30;99.90;;;;;;5090289;28;20183;-62
2023/05/05 01:34:28;;;;;;;0.00;0.00;;;14.30;99.90;;;;;;5090522;28;20187;-62
2023/05/05 01:37:13;;;;;;;0.17;0.17;;;14.30;99.90;;;;;;5090135;28;20595;-62
2023/05/05 01:39:40;;;;;;;0.00;0.00;;;14.20;99.90;;;;;;5090407;28;20194;-62
2023/05/05 01:42:09;;;;;;;0.00;0.00;;;14.20;99.90;;;;;;5089643;28;20552;-62
2023/05/05 01:44:36;;;;;;;0.00;0.00;;;14.20;99.90;;;;;;5090479;28;20176;-62
2023/05/05 01:47:03;;;;;;;0.00;0.00;;;14.20;99.90;;;;;;5090076;28;20280;-62
2023/05/05 01:49:29;;;;;;;0.00;0.00;;;14.20;99.90;;;;;;5089885;28;20184;-62
2023/05/05 01:51:56;;;;;;;0.00;0.00;;;14.20;99.90;;;;;;5090255;28;20253;-62
2023/05/05 01:54:24;;;;;;;0.00;0.00;;;14.20;99.90;;;;;;5090272;28;20188;-62
2023/05/05 01:56:52;;;;;;;3.03;1.27;;;14.20;99.90;;;;;;5089249;28;20445;-62
2023/05/05 01:59:19;;;;;;;0.00;0.00;;;14.10;99.90;;;;;;5090080;28;20225;-62
2023/05/05 02:01:47;;;;;;;0.25;0.25;;;14.10;99.90;;;;;;5089616;28;20191;-63
2023/05/05 02:04:16;;;;;;;0.00;0.00;;;14.10;99.90;;;;;;5084686;28;20199;-62
2023/05/05 02:06:44;;;;;;;0.00;0.00;;;14.10;99.90;;;;;;5075445;28;20277;-62
2023/05/05 02:09:12;;;;;;;0.00;0.00;;;14.00;99.90;;;;;;5082869;28;20180;-63
2023/05/05 02:11:39;;;;;;;0.08;0.08;;;14.00;99.90;;;;;;5093571;28;20711;-62
2023/05/05 02:14:06;;;;;;;0.00;0.00;;;14.00;99.90;;;;;;5093606;28;20733;-62
2023/05/05 02:16:33;;;;;;;0.00;0.00;;;14.00;99.90;;;;;;5093921;28;20168;-62
2023/05/05 02:19:03;;;;;;;0.00;0.00;;;13.90;99.90;;;;;;5093673;28;20708;-62
2023/05/05 02:21:30;;;;;;;0.00;0.00;;;13.90;99.90;;;;;;5093482;28;20229;-62
2023/05/05 02:23:56;;;;;;;0.00;0.00;;;13.90;99.90;;;;;;5092775;28;20212;-62
2023/05/05 02:26:23;;;;;;;0.10;0.10;;;13.90;99.90;;;;;;5080709;28;20194;-62
2023/05/05 02:29:18;;;;;;;0.00;0.00;;;13.90;99.90;;;;;;5093403;28;20180;-62
2023/05/05 02:31:52;;;;;;;0.00;0.00;;;13.90;99.90;;;;;;5093774;28;20263;-62
2023/05/05 02:34:25;;;;;;;0.00;0.00;;;13.90;99.90;;;;;;5093222;28;20244;-62
2023/05/05 02:36:53;;;;;;;0.10;0.10;;;13.90;99.90;;;;;;5093526;28;20188;-61
2023/05/05 02:39:26;;;;;;;0.00;0.00;;;13.80;99.90;;;;;;5093281;28;20176;-62
2023/05/05 02:41:54;;;;;;;0.05;0.05;;;13.80;99.90;;;;;;5093335;28;20264;-62
2023/05/05 02:44:23;;;;;;;0.00;0.00;;;13.80;99.90;;;;;;5092895;28;20259;-61
2023/05/05 02:46:49;;;;;;;0.00;0.00;;;13.80;99.90;;;;;;5093584;28;20176;-62
2023/05/05 02:49:15;;;;;;;0.10;0.10;;;13.80;99.90;;;;;;5093378;28;20172;-61
2023/05/05 02:51:40;;;;;;;0.00;0.00;;;13.80;99.90;;;;;;5092011;28;20176;-61
2023/05/05 02:54:06;;;;;;;0.00;0.00;;;13.80;99.90;;;;;;5093039;28;20703;-61
2023/05/05 02:56:48;;;;;;;0.00;0.00;;;13.80;99.90;;;;;;5093324;28;20172;-62
2023/05/05 02:59:20;;;;;;;0.00;0.00;;;13.80;99.90;;;;;;5093109;28;20180;-62
2023/05/05 03:02:07;;;;;;;0.00;0.00;;;13.80;99.90;;;;;;5093094;28;20184;-61
2023/05/05 03:04:38;;;;;;;0.00;0.00;;;13.80;99.90;;;;;;5092894;28;20168;-62
2023/05/05 03:07:10;;;;;;;0.00;0.00;;;13.80;99.90;;;;;;5093058;28;20176;-62
2023/05/05 03:09:40;;;;;;;0.00;0.00;;;13.80;99.90;;;;;;5092838;28;20168;-62
2023/05/05 03:12:09;;;;;;;0.10;0.10;;;13.80;99.90;;;;;;5092962;28;20204;-62
2023/05/05 03:14:41;;;;;;;0.00;0.00;;;13.70;99.90;;;;;;5092877;28;20260;-61
2023/05/05 03:17:11;;;;;;;0.00;0.00;;;13.80;99.90;;;;;;5080496;28;20255;-63
2023/05/05 03:19:40;;;;;;;0.00;0.00;;;13.80;99.90;;;;;;5090120;28;20172;-63
2023/05/05 03:22:06;;;;;;;0.05;0.05;;;13.80;99.90;;;;;;5092779;28;20176;-63
2023/05/05 03:24:32;;;;;;;0.05;0.05;;;13.80;99.90;;;;;;5092425;28;20627;-63
2023/05/05 03:26:57;;;;;;;0.00;0.00;;;13.90;99.90;;;;;;5091934;28;20241;-63
2023/05/05 03:29:24;;;;;;;0.30;0.30;;;13.80;99.90;;;;;;5091933;28;20207;-61
2023/05/05 03:31:49;;;;;;;0.22;0.22;;;13.90;99.90;;;;;;5091898;28;20211;-60
2023/05/05 03:34:15;;;;;;;0.00;0.00;;;13.90;99.90;;;;;;5091242;28;20220;-62
2023/05/05 03:36:40;;;;;;;0.00;0.00;;;13.90;99.90;;;;;;5092256;28;20209;-62
2023/05/05 03:39:06;;;;;;;0.05;0.05;;;13.90;99.90;;;;;;5092140;28;20215;-63
2023/05/05 03:41:32;;;;;;;0.00;0.00;;;13.90;99.90;;;;;;5091953;28;20663;-62
2023/05/05 03:43:57;;;;;;;0.10;0.10;;;13.90;99.90;;;;;;5092097;28;20199;-63
2023/05/05 03:46:23;;;;;;;0.00;0.00;;;13.90;99.90;;;;;;5092283;28;20176;-60
2023/05/05 03:48:48;;;;;;;0.00;0.00;;;13.90;99.90;;;;;;5092140;28;20172;-64
2023/05/05 03:51:14;;;;;;;0.00;0.00;;;14.00;99.90;;;;;;5091051;28;20518;-62
2023/05/05 03:53:40;;;;;;;0.00;0.00;;;14.00;99.90;;;;;;5091441;28;20510;-61
2023/05/05 03:56:06;;;;;;;0.00;0.00;;;14.00;99.90;;;;;;5091816;28;20839;-61
2023/05/05 03:58:31;;;;;;;0.10;0.10;;;14.00;99.90;;;;;;5091412;28;21287;-61
2023/05/05 04:00:57;;;;;;;0.00;0.00;;;14.00;99.90;;;;;;5092080;28;20268;-62
2023/05/05 04:03:22;;;;;;;0.00;0.00;;;14.00;99.90;;;;;;5091872;28;20199;-61
2023/05/05 04:05:48;;;;;;;0.00;0.00;;;14.00;99.90;;;;;;5091278;28;20660;-60
2023/05/05 04:08:14;;;;;;;0.00;0.00;;;14.10;99.90;;;;;;5091189;28;20190;-59
2023/05/05 04:10:39;;;;;;;0.00;0.00;;;14.10;99.90;;;;;;5091691;28;20172;-59
2023/05/05 04:13:05;;;;;;;0.10;0.10;;;14.10;99.90;;;;;;5091157;28;20306;-62
2023/05/05 04:15:31;;;;;;;0.00;0.00;;;14.10;99.90;;;;;;5091789;28;20183;-61
2023/05/05 04:17:56;;;;;;;0.00;0.00;;;14.30;99.90;;;;;;5091019;28;20187;-62
2023/05/05 04:20:22;;;;;;;0.00;0.00;;;14.40;99.90;;;;;;5090731;28;20505;-62
2023/05/05 04:22:47;;;;;;;0.00;0.00;;;14.40;99.90;;;;;;5090829;28;20176;-61
2023/05/05 04:25:13;;;;;;;0.00;0.00;;;14.50;99.90;;;;;;5090006;28;20581;-61
2023/05/05 04:27:38;;;;;;;0.00;0.00;;;14.50;99.90;;;;;;5090905;28;20176;-61
2023/05/05 04:30:05;;;;;;;0.00;0.00;;;14.50;99.90;;;;;;5090845;28;20268;-62
2023/05/05 04:32:30;;;;;;;0.00;0.00;;;14.50;99.90;;;;;;5086473;28;20224;-61
2023/05/05 04:34:56;;;;;;;0.00;0.00;;;14.50;99.90;;;;;;5089782;28;20168;-61
2023/05/05 04:37:21;;;;;;;0.00;0.00;;;14.50;99.90;;;;;;5091049;28;20176;-61
2023/05/05 04:39:47;;;;;;;0.00;0.00;;;14.60;99.90;;;;;;5090956;28;20168;-61
2023/05/05 04:42:13;;;;;;;0.00;0.00;;;14.60;99.90;;;;;;5091132;28;20221;-62
2023/05/05 04:44:38;;;;;;;0.00;0.00;;;14.60;99.90;;;;;;5091222;28;20204;-61
2023/05/05 04:47:04;;;;;;;0.00;0.00;;;14.60;99.90;;;;;;5091072;28;20179;-61
2023/05/05 04:49:30;;;;;;;0.10;0.10;;;14.70;99.90;;;;;;5091134;28;20225;-61
2023/05/05 04:51:56;;;;;;;0.00;0.00;;;14.80;99.90;;;;;;5090898;28;20176;-61
2023/05/05 04:54:22;;;;;;;0.00;0.00;;;14.90;99.90;;;;;;5090365;28;20573;-61
2023/05/05 04:56:47;;;;;;;0.00;0.00;;;15.00;99.90;;;;;;5090431;28;20240;-62
2023/05/05 04:59:16;;;;;;;0.00;0.00;;;15.30;99.90;;;;;;5090589;28;20639;-62
2023/05/05 05:01:42;;;;;;;0.00;0.00;;;15.70;99.90;;;;;;5091001;28;20180;-62
2023/05/05 05:04:09;;;;;;;0.00;0.00;;;16.10;99.90;;;;;;5091022;28;20176;-62
2023/05/05 05:06:34;;;;;;;0.00;0.00;;;16.50;99.90;;;;;;5090585;28;20519;-62
2023/05/05 05:09:00;;;;;;;0.00;0.00;;;16.80;99.90;;;;;;5090961;28;20202;-62
2023/05/05 05:11:26;;;;;;;0.00;0.00;;;17.20;99.90;;;;;;5091235;28;20505;-62
2023/05/05 05:13:52;;;;;;;0.00;0.00;;;17.50;99.90;;;;;;5090881;28;20216;-62
2023/05/05 05:16:17;;;;;;;0.00;0.00;;;17.70;99.90;;;;;;5090931;28;20200;-62
2023/05/05 05:18:43;;;;;;;0.00;0.00;;;17.90;99.90;;;;;;5090923;28;20176;-62
2023/05/05 05:21:09;;;;;;;0.00;0.00;;;18.20;99.90;;;;;;5090003;28;20176;-61
2023/05/05 05:23:34;;;;;;;0.00;0.00;;;18.50;99.90;;;;;;5090145;28;20316;-61
2023/05/05 05:26:00;;;;;;;0.00;0.00;;;18.80;99.90;;;;;;5090388;28;20191;-61
2023/05/05 05:28:26;;;;;;;0.20;0.20;;;19.20;99.90;;;;;;5090999;28;20164;-61
2023/05/05 05:30:52;;;;;;;0.00;0.00;;;19.50;99.90;;;;;;5090957;28;20176;-61
2023/05/05 05:33:17;;;;;;;0.00;0.00;;;19.80;99.90;;;;;;5089290;28;20549;-61
2023/05/05 05:35:43;;;;;;;0.00;0.00;;;20.20;99.90;;;;;;5090824;28;20172;-61
2023/05/05 05:38:09;;;;;;;0.05;0.03;;;20.30;99.70;;;;;;5090737;28;20171;-62
2023/05/05 05:40:35;;;;;;;0.10;0.10;;;20.40;99.40;;;;;;5092808;28;20704;-62
2023/05/05 05:43:01;;;;;;;0.00;0.00;;;20.50;98.90;;;;;;5094654;28;20592;-62
2023/05/05 05:45:27;;;;;;;0.00;0.00;;;20.30;98.80;;;;;;5094742;28;20195;-62
2023/05/05 05:47:52;;;;;;;0.00;0.00;;;20.10;99.10;;;;;;5094696;28;20686;-62
2023/05/05 05:50:18;;;;;;;0.00;0.00;;;19.90;99.40;;;;;;5094703;28;20168;-62
2023/05/05 05:52:43;;;;;;;0.00;0.00;;;19.80;99.90;;;;;;5094590;28;20667;-62
2023/05/05 05:55:09;;;;;;;0.00;0.00;;;20.00;99.90;;;;;;5094406;28;20185;-61
2023/05/05 05:57:34;;;;;;;0.00;0.00;;;20.50;99.90;;;;;;5094494;28;20187;-62
2023/05/05 06:00:00;;;;;;;0.00;0.00;;;21.30;98.90;;;;;;5094417;28;20176;-62
2023/05/05 06:02:26;;;;;;;0.00;0.00;;;21.50;97.80;;;;;;5093017;28;20194;-62
2023/05/05 06:04:51;;;;;;;0.00;0.00;;;21.70;97.70;;;;;;5094365;28;20642;-61
2023/05/05 06:07:17;;;;;;;0.00;0.00;;;21.80;96.80;;;;;;5094238;28;20232;-61
2023/05/05 06:09:42;;;;;;;0.00;0.00;;;21.90;96.50;;;;;;5094328;28;20662;-62
2023/05/05 06:12:08;;;;;;;0.00;0.00;;;22.10;96.50;;;;;;5094134;28;20574;-62
2023/05/05 06:14:33;;;;;;;0.00;0.00;;;22.60;96.00;;;;;;5094169;28;20188;-62
2023/05/05 06:16:59;;;;;;;0.00;0.00;;;23.10;95.60;;;;;;5094239;28;20182;-62
2023/05/05 06:19:25;;;;;;;0.00;0.00;;;23.70;94.30;;;;;;5094075;28;20168;-62
2023/05/05 06:21:50;;;;;;;0.00;0.00;;;24.30;93.30;;;;;;5093906;28;20168;-62
2023/05/05 06:24:16;;;;;;;0.00;0.00;;;24.90;91.80;;;;;;5093630;28;20231;-62
2023/05/05 06:26:41;;;;;;;0.00;0.00;;;24.90;90.40;;;;;;5093887;28;20263;-62
2023/05/05 06:29:07;;;;;;;0.00;0.00;;;24.60;90.10;;;;;;5093837;28;20190;-62
2023/05/05 06:31:32;;;;;;;0.00;0.00;;;23.90;90.50;;;;;;5093802;28;20171;-62
2023/05/05 06:33:58;;;;;;;0.00;0.00;;;23.80;91.20;;;;;;5093743;28;20307;-62
2023/05/05 06:36:23;;;;;;;0.00;0.00;;;23.80;91.20;;;;;;5093898;28;20631;-62
2023/05/05 06:38:49;;;;;;;0.00;0.00;;;23.90;91.30;;;;;;5093668;28;20179;-61
2023/05/05 06:41:15;;;;;;;0.00;0.00;;;23.90;90.80;;;;;;5093651;28;20207;-62
2023/05/05 06:43:41;;;;;;;0.00;0.00;;;23.90;91.30;;;;;;5093629;28;20180;-62
2023/05/05 06:46:07;;;;;;;0.00;0.00;;;23.90;90.80;;;;;;5093656;28;20571;-61
2023/05/05 06:48:33;;;;;;;0.00;0.00;;;24.10;90.80;;;;;;5093874;28;20635;-61
2023/05/05 06:50:58;;;;;;;0.00;0.00;;;24.10;90.80;;;;;;5092464;28;20172;-61
2023/05/05 06:53:24;;;;;;;0.00;0.00;;;24.10;90.70;;;;;;5093849;28;20288;-61
2023/05/05 06:55:49;;;;;;;0.00;0.00;;;23.90;90.40;;;;;;5093608;28;20172;-61
2023/05/05 06:58:15;;;;;;;0.00;0.00;;;23.60;90.70;;;;;;5093521;28;20177;-63
2023/05/05 07:00:41;;;;;;;0.00;0.00;;;23.60;91.20;;;;;;5093702;28;20214;-61
2023/05/05 07:03:06;;;;;;;0.00;0.00;;;23.40;90.70;;;;;;5093760;28;20207;-61
2023/05/05 07:05:32;;;;;;;0.00;0.00;;;23.30;91.10;;;;;;5092300;28;20212;-62
2023/05/05 07:07:57;;;;;;;0.00;0.00;;;23.50;91.50;;;;;;5093460;28;20728;-61
2023/05/05 07:10:24;;;;;;;0.00;0.00;;;23.40;91.30;;;;;;5093450;28;20523;-61
2023/05/05 07:12:50;;;;;;;0.00;0.00;;;23.30;91.80;;;;;;5093139;28;20215;-61
2023/05/05 07:15:16;;;;;;;0.00;0.00;;;22.80;91.80;;;;;;5093262;28;20179;-61
2023/05/05 07:17:42;;;;;;;0.00;0.00;;;22.50;92.40;;;;;;5093384;28;20172;-61
2023/05/05 07:20:08;;;;;;;0.00;0.00;;;22.10;93.10;;;;;;5093128;28;20263;-62
2023/05/05 07:22:34;;;;;;;0.00;0.00;;;21.80;93.10;;;;;;5093412;28;20203;-61
2023/05/05 07:25:00;;;;;;;0.00;0.00;;;21.50;93.60;;;;;;5092967;28;20259;-61
2023/05/05 07:27:25;;;;;;;0.00;0.00;;;21.30;94.00;;;;;;5093086;28;20202;-61
2023/05/05 07:29:51;;;;;;;0.03;0.03;;;21.00;95.00;;;;;;5092990;28;20180;-62
2023/05/05 07:32:16;;;;;;;0.00;0.00;;;20.80;95.40;;;;;;5092919;28;20246;-61
2023/05/05 07:34:42;;;;;;;0.00;0.00;;;20.80;95.90;;;;;;5093033;28;20530;-62
2023/05/05 07:37:08;;;;;;;0.10;0.10;;;20.90;96.40;;;;;;5091473;28;20172;-61
2023/05/05 07:39:33;;;;;;;0.00;0.00;;;20.90;96.60;;;;;;5092991;28;20529;-61
2023/05/05 07:42:00;;;;;;;0.00;0.00;;;21.00;96.70;;;;;;5092748;28;20179;-62
2023/05/05 07:44:25;;;;;;;0.00;0.00;;;21.10;96.40;;;;;;5092892;28;20201;-62
2023/05/05 07:46:51;;;;;;;0.00;0.00;;;21.20;96.50;;;;;;5092654;28;20266;-61
2023/05/05 07:49:17;;;;;;;0.00;0.00;;;21.30;96.50;;;;;;5092882;28;20176;-61
2023/05/05 07:51:43;;;;;;;0.00;0.00;;;21.40;96.20;;;;;;5092903;28;20172;-61
2023/05/05 07:54:09;;;;;;;0.00;0.00;;;21.50;95.90;;;;;;5092533;28;20210;-61
2023/05/05 07:56:35;;;;;;;0.00;0.00;;;21.50;95.90;;;;;;5092636;28;20176;-61
2023/05/05 07:59:00;;;;;;;0.00;0.00;;;21.60;95.80;;;;;;5092604;28;20168;-61
2023/05/05 08:01:26;;;;;;;0.00;0.00;;;21.60;96.10;;;;;;5092346;28;20172;-61
2023/05/05 08:03:51;;;;;;;0.00;0.00;;;21.60;96.20;;;;;;5091019;28;20246;-61
2023/05/05 08:06:26;;;;;;;0.00;0.00;;;21.80;95.90;;;;;;5092273;28;20867;-61
2023/05/05 08:08:52;;;;;;;0.00;0.00;;;22.10;95.70;;;;;;5092289;28;20182;-61
2023/05/05 08:11:19;;;;;;;0.00;0.00;;;22.20;95.00;;;;;;5092193;28;20732;-62
2023/05/05 08:13:45;;;;;;;0.05;0.05;;;22.30;95.20;;;;;;5092278;28;20307;-61
2023/05/05 08:16:11;;;;;;;0.00;0.00;;;22.30;94.50;;;;;;5091906;28;20631;-61
2023/05/05 08:18:37;;;;;;;0.00;0.00;;;22.20;94.70;;;;;;5092225;28;20172;-61
2023/05/05 08:21:07;;;;;;;0.00;0.00;;;22.10;95.00;;;;;;5092077;28;20651;-61
2023/05/05 08:23:37;;;;;;;0.00;0.00;;;22.00;95.40;;;;;;5092015;28;20245;-61
2023/05/05 08:26:08;;;;;;;0.00;0.00;;;22.30;95.50;;;;;;5092034;28;20168;-61
2023/05/05 08:28:35;;;;;;;0.00;0.00;;;23.00;95.80;;;;;;5092107;28;20622;-61
2023/05/05 08:31:04;;;;;;;0.00;0.00;;;23.50;93.80;;;;;;5091840;28;20599;-61
2023/05/05 08:33:30;;;;;;;0.00;0.00;;;23.60;93.10;;;;;;5091732;28;20689;-61
2023/05/05 08:35:55;;;;;;;0.00;0.00;;;23.50;93.00;;;;;;5091868;28;20180;-61
2023/05/05 08:38:21;;;;;;;0.00;0.00;;;23.30;92.60;;;;;;5091772;28;20176;-62
2023/05/05 08:40:47;;;;;;;0.00;0.00;;;23.40;93.00;;;;;;5091818;28;20172;-61
2023/05/05 08:43:12;;;;;;;0.00;0.00;;;23.60;93.00;;;;;;5091574;28;20180;-62
2023/05/05 08:45:40;;;;;;;0.00;0.00;;;24.20;92.70;;;;;;5091812;28;20827;-62
2023/05/05 08:48:07;;;;;;;0.00;0.00;;;24.90;91.90;;;;;;5091741;28;20207;-61
2023/05/05 08:50:34;;;;;;;0.00;0.00;;;25.50;90.00;;;;;;5091720;28;20254;-61
2023/05/05 08:53:14;;;;;;;0.00;0.00;;;25.60;88.00;;;;;;5091496;28;20687;-62
2023/05/05 08:55:50;;;;;;;0.00;0.00;;;25.90;87.20;;;;;;5091760;28;20195;-61
2023/05/05 08:58:20;;;;;;;0.00;0.00;;;25.50;84.50;;;;;;5091542;28;20167;-61
2023/05/05 09:00:46;;;;;;;0.00;0.00;;;25.30;85.30;;;;;;5091393;28;20179;-62
2023/05/05 09:03:11;;;;;;;0.00;0.00;;;25.20;85.50;;;;;;5091286;28;20180;-61
2023/05/05 09:05:37;;;;;;;0.00;0.00;;;24.90;85.30;;;;;;5091607;28;20200;-61
2023/05/05 09:08:09;;;;;;;0.00;0.00;;;24.80;86.00;;;;;;5091547;28;20255;-62
2023/05/05 09:10:39;;;;;;;0.28;0.25;;;24.40;86.60;;;;;;5091611;28;20537;-62
2023/05/05 09:13:05;;;;;;;0.00;0.00;;;24.50;87.00;;;;;;5091254;28;20214;-61
2023/05/05 09:15:31;;;;;;;0.00;0.00;;;24.70;87.50;;;;;;5094774;28;20176;-61
2023/05/05 09:17:58;;;;;;;0.00;0.00;;;24.60;86.90;;;;;;5095559;28;20179;-61
2023/05/05 09:20:33;;;;;;;0.00;0.00;;;24.50;86.00;;;;;;5095598;28;20168;-62
2023/05/05 09:23:13;;;;;;;0.00;0.00;;;24.30;86.20;;;;;;5095382;28;20637;-61
2023/05/05 09:25:40;;;;;;;0.10;0.10;;;24.20;87.40;;;;;;5095621;28;20179;-61
2023/05/05 09:28:10;;;;;;;0.00;0.00;;;24.30;88.50;;;;;;5095356;28;20179;-61
2023/05/05 09:30:37;;;;;;;0.00;0.00;;;24.10;88.10;;;;;;5095392;28;20634;-62
2023/05/05 09:33:03;;;;;;;0.00;0.00;;;24.00;88.70;;;;;;5095292;28;20215;-62
2023/05/05 09:35:46;;;;;;;0.00;0.00;;;24.00;89.40;;;;;;5095241;28;20631;-61
2023/05/05 09:38:11;;;;;;;0.03;0.03;;;23.90;89.10;;;;;;5094990;28;20661;-61
2023/05/05 09:40:45;;;;;;;0.00;0.00;;;23.80;89.10;;;;;;5095105;28;20168;-61
2023/05/05 09:43:11;;;;;;;0.00;0.00;;;23.70;89.40;;;;;;5095026;28;20184;-62
2023/05/05 09:45:36;;;;;;;0.00;0.00;;;23.60;89.30;;;;;;5095170;28;20530;-62
2023/05/05 09:48:03;;;;;;;0.00;0.00;;;23.50;88.70;;;;;;5094930;28;20188;-61
2023/05/05 09:50:29;;;;;;;0.00;0.00;;;23.40;89.10;;;;;;5094871;28;20172;-61
2023/05/05 09:52:56;;;;;;;0.00;0.00;;;23.20;89.20;;;;;;5094881;28;20219;-62
2023/05/05 09:55:23;;;;;;;0.00;0.00;;;23.10;89.30;;;;;;5093739;28;20643;-62
2023/05/05 09:57:48;;;;;;;0.00;0.00;;;23.00;89.60;;;;;;5094849;28;20616;-62
2023/05/05 10:00:14;;;;;;;0.00;0.00;;;23.00;89.60;;;;;;5095032;28;20251;-61
2023/05/05 10:02:40;;;;;;;0.00;0.00;;;23.00;89.30;;;;;;5094653;28;20267;-61
2023/05/05 10:05:09;;;;;;;0.00;0.00;;;22.80;88.90;;;;;;5094583;28;20176;-60
2023/05/05 10:07:36;;;;;;;0.00;0.00;;;22.60;90.00;;;;;;5094695;28;20168;-61
2023/05/05 10:10:08;;;;;;;0.00;0.00;;;22.60;90.80;;;;;;5094554;28;20164;-61
2023/05/05 10:12:37;;;;;;;0.00;0.00;;;22.60;91.40;;;;;;5093404;28;20260;-61
2023/05/05 10:15:04;;;;;;;0.00;0.00;;;22.60;91.50;;;;;;5094497;28;20182;-61
2023/05/05 10:17:33;;;;;;;0.00;0.00;;;22.60;91.50;;;;;;5094540;28;20180;-61
2023/05/05 10:20:00;;;;;;;0.00;0.00;;;22.60;91.70;;;;;;5094393;28;20259;-61
2023/05/05 10:22:29;;;;;;;0.00;0.00;;;22.50;91.80;;;;;;5094474;28;20184;-61
2023/05/05 10:25:04;;;;;;;0.00;0.00;;;22.40;91.70;;;;;;5093845;28;20709;-61
2023/05/05 10:27:44;;;;;;;0.00;0.00;;;22.40;92.10;;;;;;5094240;28;20183;-61
2023/05/05 10:30:21;;;;;;;0.00;0.00;;;22.40;92.00;;;;;;5094058;28;20175;-61
2023/05/05 10:32:50;;;;;;;0.00;0.00;;;22.30;92.10;;;;;;5094207;28;20214;-61
2023/05/05 10:35:21;;;;;;;0.00;0.00;;;22.20;92.10;;;;;;5094106;28;20176;-61
2023/05/05 10:37:47;;;;;;;0.00;0.00;;;22.20;92.30;;;;;;5094208;28;20263;-61
2023/05/05 10:40:13;;;;;;;0.00;0.00;;;22.20;92.00;;;;;;5092706;28;20537;-61
2023/05/05 10:42:40;;;;;;;0.00;0.00;;;22.20;91.90;;;;;;5094148;28;20187;-61
2023/05/05 10:45:06;;;;;;;0.00;0.00;;;22.10;91.80;;;;;;5093923;28;20255;-61
2023/05/05 10:47:33;;;;;;;0.00;0.00;;;22.10;92.10;;;;;;5093532;28;20176;-61
2023/05/05 10:50:13;;;;;;;0.00;0.00;;;22.20;92.20;;;;;;5093852;28;20177;-61
2023/05/05 10:52:46;;;;;;;0.00;0.00;;;22.30;91.70;;;;;;5093816;28;20200;-61
2023/05/05 10:55:20;;;;;;;0.00;0.00;;;22.40;92.00;;;;;;5093634;28;20184;-61
2023/05/05 10:57:50;;;;;;;0.00;0.00;;;22.50;92.00;;;;;;5093727;28;20180;-61
2023/05/05 11:00:38;;;;;;;0.00;0.00;;;22.60;91.50;;;;;;5093677;28;20172;-61
2023/05/05 11:03:15;;;;;;;0.00;0.00;;;22.60;91.00;;;;;;5093550;28;20175;-61
2023/05/05 11:06:07;;;;;;;0.00;0.00;;;22.90;91.30;;;;;;5093654;28;20180;-61
2023/05/05 11:08:39;;;;;;;0.00;0.00;;;23.20;90.20;;;;;;5087769;28;20188;-61
2023/05/05 11:11:05;;;;;;;0.00;0.00;;;23.50;88.60;;;;;;5093370;28;20171;-61
2023/05/05 11:13:30;;;;;;;0.00;0.00;;;23.80;87.40;;;;;;5093244;28;20662;-62
2023/05/05 11:15:58;;;;;;;0.00;0.00;;;24.20;86.30;;;;;;5093375;28;20229;-62
2023/05/05 11:18:36;;;;;;;0.22;0.22;;;24.40;85.10;;;;;;5093472;28;20176;-62
2023/05/05 11:21:15;;;;;;;0.00;0.00;;;24.60;82.90;;;;;;5093228;28;20207;-62
2023/05/05 11:23:48;;;;;;;0.00;0.00;;;24.70;82.60;;;;;;5093353;28;20251;-61
2023/05/05 11:26:15;;;;;;;0.00;0.00;;;24.90;80.80;;;;;;5093297;28;20505;-61
2023/05/05 11:28:56;;;;;;;0.00;0.00;;;25.10;82.10;;;;;;5093278;28;20172;-62
2023/05/05 11:31:21;;;;;;;0.00;0.00;;;25.20;80.70;;;;;;5093062;28;20183;-62
2023/05/05 11:33:47;;;;;;;0.00;0.00;;;25.40;81.80;;;;;;5093100;28;20216;-61
2023/05/05 11:36:18;;;;;;;0.00;0.00;;;25.40;80.60;;;;;;5092563;28;20532;-62
2023/05/05 11:38:53;;;;;;;0.00;0.00;;;25.40;79.90;;;;;;5092714;28;20176;-62
2023/05/05 11:41:33;;;;;;;0.00;0.00;;;25.50;79.70;;;;;;5092982;28;20167;-61
2023/05/05 11:44:13;;;;;;;0.00;0.00;;;25.70;79.80;;;;;;5091538;28;20191;-61
2023/05/05 11:46:50;;;;;;;0.00;0.00;;;25.70;78.40;;;;;;5092893;28;20180;-62
2023/05/05 11:49:26;;;;;;;0.00;0.00;;;26.00;77.50;;;;;;5092708;28;20176;-62
2023/05/05 11:51:56;;;;;;;0.00;0.00;;;26.30;77.80;;;;;;5092649;28;20259;-62
2023/05/05 11:54:22;;;;;;;0.00;0.00;;;26.30;75.90;;;;;;5092519;28;20222;-62
2023/05/05 11:56:49;;;;;;;0.00;0.00;;;26.50;76.10;;;;;;5092493;28;20179;-62
2023/05/05 11:59:15;;;;;;;0.00;0.00;;;26.90;74.50;;;;;;5092584;28;20179;-62
2023/05/05 12:01:41;;;;;;;0.00;0.00;;;27.10;73.20;;;;;;5092455;28;20221;-62
2023/05/05 12:04:16;;;;;;;0.00;0.00;;;27.30;71.30;;;;;;5092431;28;20179;-62
2023/05/05 12:06:43;;;;;;;0.00;0.00;;;27.40;71.40;;;;;;5092526;28;20207;-62
2023/05/05 12:09:16;;;;;;;0.00;0.00;;;27.20;71.00;;;;;;5092189;28;20694;-61
2023/05/05 12:11:51;;;;;;;0.00;0.00;;;27.20;70.40;;;;;;5092351;28;20596;-62
2023/05/05 12:14:17;;;;;;;0.00;0.00;;;27.20;70.30;;;;;;5092124;28;20257;-62
2023/05/05 12:17:07;;;;;;;0.00;0.00;;;26.70;70.20;;;;;;5092074;28;20180;-62
2023/05/05 12:19:34;;;;;;;0.00;0.00;;;26.50;71.80;;;;;;5092236;28;20529;-62
2023/05/05 12:22:01;;;;;;;0.00;0.00;;;26.30;71.80;;;;;;5092057;28;20262;-61
2023/05/05 12:24:29;;;;;;;0.00;0.00;;;26.00;72.40;;;;;;5091858;28;20766;-61
2023/05/05 12:26:54;;;;;;;0.00;0.00;;;26.00;73.50;;;;;;5092096;28;20179;-61
2023/05/05 12:29:24;;;;;;;0.00;0.00;;;25.90;73.80;;;;;;5091909;28;20190;-61
2023/05/05 12:31:49;;;;;;;0.00;0.00;;;25.80;74.40;;;;;;5091990;28;20190;-61
2023/05/05 12:34:16;;;;;;;0.00;0.00;;;25.70;73.60;;;;;;5090648;28;20215;-61
2023/05/05 12:36:42;;;;;;;0.00;0.00;;;25.70;73.60;;;;;;5091990;28;20233;-61
2023/05/05 12:39:07;;;;;;;0.00;0.00;;;25.80;73.30;;;;;;5091913;28;20567;-61
2023/05/05 12:41:33;;;;;;;0.00;0.00;;;25.90;74.30;;;;;;5090650;28;20233;-61
2023/05/05 12:44:00;;;;;;;0.00;0.00;;;26.00;73.00;;;;;;5090539;28;20724;-61
2023/05/05 12:46:28;;;;;;;0.00;0.00;;;26.20;71.40;;;;;;5091981;28;20179;-61
2023/05/05 12:49:06;;;;;;;0.00;0.00;;;26.40;71.00;;;;;;5091705;28;20521;-61
2023/05/05 12:51:33;;;;;;;0.00;0.00;;;26.80;70.70;;;;;;5091652;28;20179;-62
2023/05/05 12:54:07;;;;;;;0.00;0.00;;;26.90;68.80;;;;;;5091657;28;20242;-61